createdAt,value
2019-02-10T00:02:34.936Z,1.10
2019-02-10T00:05:58.616Z,0.80
2019-02-10T00:09:22.458Z,0.60
2019-02-10T00:13:18.231Z,0.50
2019-02-10T00:16:42.422Z,0.30
2019-02-10T00:20:06.920Z,0.40
2019-02-10T00:23:30.672Z,0.10
2019-02-10T00:26:54.361Z,0.20
2019-02-10T00:30:18.102Z,0.50
2019-02-10T00:33:41.828Z,0.50
2019-02-10T00:37:05.555Z,0.80
2019-02-10T00:40:29.126Z,1.10
2019-02-10T00:43:52.845Z,1.10
2019-02-10T00:47:16.515Z,1.20
2019-02-10T00:50:40.295Z,1.30
2019-02-10T00:54:04.035Z,1.50
2019-02-10T00:57:27.838Z,1.40
2019-02-10T01:00:51.532Z,1.60
2019-02-10T01:04:15.298Z,1.40
2019-02-10T01:07:38.835Z,1.50
2019-02-10T01:11:02.658Z,1.60
2019-02-10T01:14:26.431Z,1.60
2019-02-10T01:17:50.076Z,1.50
2019-02-10T01:21:13.685Z,1.80
2019-02-10T01:24:37.455Z,1.60
2019-02-10T01:28:01.073Z,1.50
2019-02-10T01:31:24.677Z,1.50
2019-02-10T01:34:48.426Z,1.80
2019-02-10T01:38:12.050Z,1.70
2019-02-10T01:41:35.805Z,1.70
2019-02-10T01:44:59.821Z,1.60
2019-02-10T01:48:23.568Z,1.60
2019-02-10T01:51:47.243Z,1.50
2019-02-10T01:55:14.125Z,1.60
2019-02-10T01:58:37.697Z,1.70
2019-02-10T02:02:01.447Z,1.60
2019-02-10T02:05:25.075Z,1.70
2019-02-10T02:08:48.596Z,1.60
2019-02-10T02:12:12.387Z,1.70
2019-02-10T02:15:36.165Z,1.80
2019-02-10T02:19:00.278Z,1.70
2019-02-10T02:22:23.896Z,1.60
2019-02-10T02:25:48.007Z,1.40
2019-02-10T02:29:11.771Z,1.70
2019-02-10T02:32:35.580Z,1.60
2019-02-10T02:35:59.222Z,1.70
2019-02-10T02:39:22.915Z,1.50
2019-02-10T02:42:46.490Z,1.50
2019-02-10T02:46:10.353Z,1.50
2019-02-10T02:49:33.963Z,1.50
2019-02-10T02:52:57.616Z,1.40
2019-02-10T02:56:21.319Z,1.40
2019-02-10T02:59:45.088Z,1.60
2019-02-10T03:03:08.835Z,1.60
2019-02-10T03:06:34.164Z,1.40
2019-02-10T03:09:57.923Z,1.40
2019-02-10T03:13:21.665Z,1.30
2019-02-10T03:16:45.245Z,1.40
2019-02-10T03:20:09.816Z,1.20
2019-02-10T03:23:33.599Z,1.20
2019-02-10T03:26:57.168Z,1.40
2019-02-10T03:30:20.897Z,1.30
2019-02-10T03:33:44.568Z,1.40
2019-02-10T03:37:08.358Z,1.40
2019-02-10T03:40:32.075Z,1.40
2019-02-10T03:43:55.739Z,1.10
2019-02-10T03:47:21.948Z,1.00
2019-02-10T03:50:44.641Z,1.00
2019-02-10T03:54:08.525Z,0.80
2019-02-10T03:57:32.089Z,0.80
2019-02-10T04:00:55.760Z,1.00
2019-02-10T04:04:19.505Z,0.90
2019-02-10T04:07:43.218Z,1.00
2019-02-10T04:11:06.853Z,1.00
2019-02-10T04:14:30.572Z,0.90
2019-02-10T04:17:55.810Z,0.90
2019-02-10T04:21:19.423Z,0.90
2019-02-10T04:24:43.233Z,0.90
2019-02-10T04:28:07.113Z,0.80
2019-02-10T04:31:30.802Z,0.90
2019-02-10T04:34:54.467Z,0.70
2019-02-10T04:38:18.241Z,0.90
2019-02-10T04:41:41.818Z,0.80
2019-02-10T04:45:05.683Z,0.90
2019-02-10T04:48:29.438Z,0.80
2019-02-10T04:51:53.041Z,0.90
2019-02-10T04:55:16.617Z,0.90
2019-02-10T04:58:40.295Z,0.90
2019-02-10T05:02:03.866Z,1.00
2019-02-10T05:05:27.612Z,1.00
2019-02-10T05:08:51.046Z,0.90
2019-02-10T05:12:14.655Z,1.00
2019-02-10T05:15:38.098Z,0.90
2019-02-10T05:19:01.596Z,0.80
2019-02-10T05:22:25.105Z,1.00
2019-02-10T05:25:48.635Z,1.00
2019-02-10T05:29:12.082Z,0.70
2019-02-10T05:32:35.726Z,0.70
2019-02-10T05:35:59.281Z,0.70
2019-02-10T05:39:23.049Z,0.60
2019-02-10T05:42:46.545Z,0.20
2019-02-10T05:46:10.114Z,0.20
2019-02-10T05:49:33.790Z,0.30
2019-02-10T05:52:57.306Z,0.20
2019-02-10T05:56:21.103Z,0.00
2019-02-10T05:59:44.531Z,-0.10
2019-02-10T06:03:08.188Z,-0.30
2019-02-10T06:06:31.831Z,-0.50
2019-02-10T06:09:55.376Z,-0.30
2019-02-10T06:13:18.976Z,-0.10
2019-02-10T06:16:42.444Z,0.20
2019-02-10T06:20:08.611Z,0.50
2019-02-10T06:23:32.201Z,0.90
2019-02-10T06:26:55.728Z,1.50
2019-02-10T06:30:19.232Z,2.30
2019-02-10T06:33:42.813Z,3.10
2019-02-10T06:37:06.351Z,4.00
2019-02-10T06:40:29.835Z,4.70
2019-02-10T06:43:53.706Z,4.90
2019-02-10T06:47:17.362Z,4.70
2019-02-10T06:50:40.948Z,4.30
2019-02-10T06:54:04.466Z,4.90
2019-02-10T06:57:27.947Z,5.80
2019-02-10T07:00:53.087Z,6.80
2019-02-10T07:04:18.271Z,6.80
2019-02-10T07:07:41.913Z,7.10
2019-02-10T07:11:05.408Z,7.40
2019-02-10T07:14:30.913Z,8.20
2019-02-10T07:17:56.631Z,7.80
2019-02-10T07:21:28.686Z,8.80
2019-02-10T07:24:58.318Z,10.00
2019-02-10T07:28:25.051Z,10.10
2019-02-10T07:31:51.674Z,11.20
2019-02-10T07:35:38.393Z,12.40
2019-02-10T07:39:07.851Z,13.50
2019-02-10T07:42:55.923Z,13.00
2019-02-10T07:46:31.410Z,13.50
2019-02-10T07:50:03.936Z,13.60
2019-02-10T07:53:36.608Z,13.90
2019-02-10T07:57:22.472Z,14.20
2019-02-10T08:00:59.490Z,14.30
2019-02-10T08:04:28.877Z,15.90
2019-02-10T08:08:24.613Z,16.90
2019-02-10T08:11:51.635Z,16.80
2019-02-10T08:15:21.586Z,17.60
2019-02-10T08:18:57.158Z,15.20
2019-02-10T08:22:40.456Z,12.70
2019-02-10T08:26:13.251Z,12.40
2019-02-10T08:29:39.985Z,15.40
2019-02-10T08:33:21.704Z,14.70
2019-02-10T08:37:05.338Z,16.10
2019-02-10T08:40:40.894Z,16.50
2019-02-10T08:44:14.465Z,13.60
2019-02-10T08:47:44.237Z,13.50
2019-02-10T08:51:33.704Z,15.30
2019-02-10T08:54:58.229Z,17.90
2019-02-10T08:58:22.830Z,18.50
2019-02-10T09:01:46.524Z,18.10
2019-02-10T09:05:10.415Z,18.50
2019-02-10T09:08:34.212Z,17.70
2019-02-10T09:11:58.677Z,18.00
2019-02-10T09:15:22.656Z,17.00
2019-02-10T09:18:46.417Z,19.00
2019-02-10T09:22:10.379Z,20.60
2019-02-10T09:25:34.167Z,20.50
2019-02-10T09:28:57.996Z,20.00
2019-02-10T09:32:21.717Z,18.80
2019-02-10T09:35:46.411Z,20.10
2019-02-10T09:39:11.158Z,19.60
2019-02-10T09:42:35.129Z,17.50
2019-02-10T09:45:59.228Z,17.90
2019-02-10T09:49:22.927Z,19.80
2019-02-10T09:52:46.726Z,16.50
2019-02-10T09:56:10.755Z,15.40
2019-02-10T09:59:34.584Z,19.40
2019-02-10T10:02:58.367Z,21.40
2019-02-10T10:06:22.718Z,22.30
2019-02-10T10:09:47.647Z,21.50
2019-02-10T10:13:11.636Z,21.90
2019-02-10T10:16:35.626Z,21.50
2019-02-10T10:19:59.630Z,20.40
2019-02-10T10:23:25.184Z,19.10
2019-02-10T10:26:48.936Z,19.60
2019-02-10T10:30:18.468Z,19.60
2019-02-10T10:33:42.233Z,20.50
2019-02-10T10:37:06.563Z,20.20
2019-02-10T10:40:30.103Z,20.50
2019-02-10T10:43:53.873Z,19.50
2019-02-10T10:47:18.496Z,21.20
2019-02-10T10:50:42.271Z,20.10
2019-02-10T10:54:06.505Z,20.50
2019-02-10T10:57:30.253Z,20.20
2019-02-10T11:00:54.146Z,20.40
2019-02-10T11:04:18.400Z,20.40
2019-02-10T11:07:42.185Z,19.30
2019-02-10T11:11:06.168Z,19.00
2019-02-10T11:14:30.170Z,19.10
2019-02-10T11:17:53.929Z,19.90
2019-02-10T11:21:17.700Z,21.00
2019-02-10T11:24:41.389Z,18.80
2019-02-10T11:28:05.038Z,20.00
2019-02-10T11:31:29.051Z,19.90
2019-02-10T11:34:52.840Z,19.90
2019-02-10T11:38:16.812Z,20.50
2019-02-10T11:41:40.815Z,19.60
2019-02-10T11:45:05.827Z,20.30
2019-02-10T11:48:29.306Z,19.40
2019-02-10T11:51:52.836Z,17.70
2019-02-10T11:55:16.514Z,15.90
2019-02-10T11:58:40.055Z,19.50
2019-02-10T12:02:03.768Z,19.80
2019-02-10T12:05:27.290Z,18.30
2019-02-10T12:08:51.012Z,18.20
2019-02-10T12:12:14.570Z,18.30
2019-02-10T12:15:38.350Z,18.00
2019-02-10T12:19:02.127Z,16.20
2019-02-10T12:22:26.015Z,16.40
2019-02-10T12:25:50.597Z,16.40
2019-02-10T12:29:14.139Z,15.80
2019-02-10T12:32:38.213Z,14.80
2019-02-10T12:36:02.150Z,15.10
2019-02-10T12:39:28.090Z,15.40
2019-02-10T12:42:53.924Z,15.90
2019-02-10T12:46:18.041Z,15.60
2019-02-10T12:49:46.067Z,15.30
2019-02-10T12:53:09.658Z,15.00
2019-02-10T12:56:33.361Z,14.30
2019-02-10T12:59:57.033Z,13.90
2019-02-10T13:03:20.553Z,14.30
2019-02-10T13:06:44.271Z,14.00
2019-02-10T13:10:11.830Z,13.20
2019-02-10T13:13:35.328Z,13.20
2019-02-10T13:16:58.950Z,12.50
2019-02-10T13:20:24.283Z,12.30
2019-02-10T13:23:47.923Z,11.50
2019-02-10T13:27:11.538Z,10.80
2019-02-10T13:30:35.333Z,11.10
2019-02-10T13:33:58.973Z,10.10
2019-02-10T13:37:22.674Z,9.50
2019-02-10T13:40:46.117Z,9.80
2019-02-10T13:44:09.974Z,9.80
2019-02-10T13:47:33.410Z,10.50
2019-02-10T13:50:59.586Z,10.10
2019-02-10T13:54:23.009Z,9.70
2019-02-10T13:57:46.723Z,9.60
2019-02-10T14:01:10.546Z,9.50
2019-02-10T14:04:55.048Z,9.70
2019-02-10T14:08:18.760Z,9.40
2019-02-10T14:11:42.343Z,8.90
2019-02-10T14:15:09.387Z,8.80
2019-02-10T14:18:32.959Z,8.60
2019-02-10T14:21:56.781Z,8.40
2019-02-10T14:25:20.350Z,8.00
2019-02-10T14:28:44.224Z,7.70
2019-02-10T14:32:08.805Z,7.50
2019-02-10T14:35:32.466Z,7.50
2019-02-10T14:38:56.275Z,7.40
2019-02-10T14:42:19.946Z,7.20
2019-02-10T14:45:43.436Z,7.10
2019-02-10T14:49:07.068Z,7.10
2019-02-10T14:52:31.000Z,7.10
2019-02-10T14:55:54.860Z,7.10
2019-02-10T14:59:18.546Z,7.00
2019-02-10T15:02:44.446Z,7.00
2019-02-10T15:06:08.143Z,7.00
2019-02-10T15:09:32.122Z,6.80
2019-02-10T15:12:55.712Z,6.70
2019-02-10T15:16:19.476Z,6.40
2019-02-10T15:19:43.569Z,6.20
2019-02-10T15:23:07.218Z,6.00
2019-02-10T15:26:30.881Z,5.80
2019-02-10T15:29:55.548Z,5.60
2019-02-10T15:33:19.243Z,5.50
2019-02-10T15:36:43.205Z,5.40
2019-02-10T15:40:08.885Z,5.10
2019-02-10T15:43:32.787Z,4.90
2019-02-10T15:46:56.326Z,4.80
2019-02-10T15:50:20.145Z,4.80
2019-02-10T15:53:43.776Z,4.80
2019-02-10T15:57:07.396Z,4.70
2019-02-10T16:00:31.472Z,4.60
2019-02-10T16:03:55.036Z,4.60
2019-02-10T16:07:18.819Z,4.50
2019-02-10T16:10:42.609Z,4.40
2019-02-10T16:14:06.257Z,4.20
2019-02-10T16:17:30.044Z,4.10
2019-02-10T16:20:53.688Z,4.20
2019-02-10T16:24:17.652Z,4.10
2019-02-10T16:27:41.257Z,3.90
2019-02-10T16:31:05.273Z,3.80
2019-02-10T16:34:29.250Z,3.70
2019-02-10T16:37:53.049Z,3.70
2019-02-10T16:41:16.714Z,3.70
2019-02-10T16:44:40.277Z,3.60
2019-02-10T16:48:04.064Z,3.40
2019-02-10T16:51:27.653Z,3.30
2019-02-10T16:54:51.512Z,3.40
2019-02-10T16:58:15.291Z,3.40
2019-02-10T17:01:39.144Z,3.40
2019-02-10T17:05:02.737Z,3.30
2019-02-10T17:08:26.383Z,3.30
2019-02-10T17:11:50.472Z,3.10
2019-02-10T17:15:14.107Z,3.10
2019-02-10T17:18:37.988Z,3.10
2019-02-10T17:22:02.052Z,3.10
2019-02-10T17:25:28.544Z,3.00
2019-02-10T17:28:52.264Z,3.00
2019-02-10T17:32:15.938Z,3.10
2019-02-10T17:35:39.729Z,2.90
2019-02-10T17:39:03.774Z,2.90
2019-02-10T17:42:27.929Z,2.80
2019-02-10T17:45:51.567Z,2.70
2019-02-10T17:49:15.214Z,2.80
2019-02-10T17:52:38.911Z,2.80
2019-02-10T17:56:03.006Z,2.70
2019-02-10T17:59:26.706Z,2.70
2019-02-10T18:02:50.626Z,2.60
2019-02-10T18:06:15.184Z,2.50
2019-02-10T18:09:38.884Z,2.50
2019-02-10T18:13:02.492Z,2.50
2019-02-10T18:16:27.794Z,2.40
2019-02-10T18:19:53.087Z,2.40
2019-02-10T18:23:21.423Z,2.30
2019-02-10T18:26:49.658Z,2.30
2019-02-10T18:30:23.829Z,2.20
2019-02-10T18:34:08.384Z,2.20
2019-02-10T18:37:42.855Z,2.20
2019-02-10T18:41:26.552Z,2.20
2019-02-10T18:45:06.873Z,2.20
2019-02-10T18:48:38.403Z,2.10
2019-02-10T18:52:19.057Z,2.00
2019-02-10T18:55:47.351Z,1.90
2019-02-10T18:59:15.527Z,1.90
2019-02-10T19:02:40.959Z,1.90
2019-02-10T19:06:09.532Z,1.80
2019-02-10T19:09:40.730Z,1.80
2019-02-10T19:13:08.716Z,1.70
2019-02-10T19:16:36.694Z,1.70
2019-02-10T19:20:10.912Z,1.60
2019-02-10T19:23:38.900Z,1.60
2019-02-10T19:27:06.586Z,1.60
2019-02-10T19:30:47.055Z,1.50
2019-02-10T19:34:15.260Z,1.60
2019-02-10T19:37:56.759Z,1.60
2019-02-10T19:41:33.949Z,1.70
2019-02-10T19:45:15.906Z,1.80
2019-02-10T19:48:47.501Z,1.80
2019-02-10T19:52:12.699Z,2.00
2019-02-10T19:55:43.684Z,2.00
2019-02-10T19:59:14.958Z,1.90
2019-02-10T20:02:46.239Z,1.90
2019-02-10T20:06:20.274Z,1.90
2019-02-10T20:09:45.629Z,1.90
2019-02-10T20:13:26.031Z,2.00
2019-02-10T20:17:07.486Z,2.00
2019-02-10T20:20:45.265Z,2.00
2019-02-10T20:24:10.609Z,2.10
2019-02-10T20:27:50.835Z,2.20
2019-02-10T20:31:32.976Z,2.20
2019-02-10T20:34:58.543Z,2.30
2019-02-10T20:38:35.988Z,2.30
2019-02-10T20:42:01.308Z,2.40
2019-02-10T20:45:29.825Z,2.50
2019-02-10T20:49:05.568Z,2.60
2019-02-10T20:52:46.378Z,2.60
2019-02-10T20:56:10.239Z,2.60
2019-02-10T20:59:44.704Z,2.60
2019-02-10T21:03:18.961Z,2.70
2019-02-10T21:06:53.323Z,2.90
2019-02-10T21:10:31.295Z,3.00
2019-02-10T21:14:12.932Z,3.20
2019-02-10T21:17:50.301Z,3.10
2019-02-10T21:21:32.390Z,3.20
2019-02-10T21:25:06.769Z,3.40
2019-02-10T21:28:35.130Z,3.40
2019-02-10T21:32:01.845Z,3.50
2019-02-10T21:35:30.213Z,3.50
2019-02-10T21:39:10.836Z,3.50
2019-02-10T21:42:42.180Z,3.50
2019-02-10T21:46:10.366Z,3.50
2019-02-10T21:49:34.148Z,3.50
2019-02-10T21:52:57.716Z,3.50
2019-02-10T21:56:21.591Z,3.50
2019-02-10T21:59:45.255Z,3.40
2019-02-10T22:03:09.717Z,3.20
2019-02-10T22:06:33.278Z,3.20
2019-02-10T22:09:57.015Z,3.00
2019-02-10T22:13:20.702Z,3.00
2019-02-10T22:16:44.363Z,3.00
2019-02-10T22:20:12.234Z,3.00
2019-02-10T22:23:36.030Z,3.00
2019-02-10T22:26:59.706Z,3.00
2019-02-10T22:30:23.484Z,2.90
2019-02-10T22:33:51.538Z,3.00
2019-02-10T22:37:12.983Z,3.10
2019-02-10T22:40:37.468Z,3.10
2019-02-10T22:44:01.109Z,3.20
2019-02-10T22:47:24.865Z,3.20
2019-02-10T22:50:48.723Z,3.20
2019-02-10T22:54:12.447Z,3.20
2019-02-10T22:57:36.238Z,3.20
2019-02-10T23:01:01.232Z,3.20
2019-02-10T23:04:25.145Z,3.20
2019-02-10T23:07:48.884Z,3.30
2019-02-10T23:11:12.663Z,3.40
2019-02-10T23:14:36.358Z,3.50
2019-02-10T23:18:00.007Z,3.60
2019-02-10T23:21:23.746Z,3.60
2019-02-10T23:24:47.411Z,3.60
2019-02-10T23:28:10.971Z,3.60
2019-02-10T23:31:34.558Z,3.70
2019-02-10T23:34:57.989Z,3.70
2019-02-10T23:38:21.715Z,3.80
2019-02-10T23:41:46.196Z,3.80
2019-02-10T23:45:09.943Z,3.80
2019-02-10T23:48:33.546Z,3.80
2019-02-10T23:51:57.403Z,3.80
2019-02-10T23:55:21.117Z,3.70
2019-02-10T23:58:44.653Z,3.60
